createdAt,value
2019-03-19T00:03:17.226Z,102108.09
2019-03-19T00:08:11.177Z,102112.63
2019-03-19T00:13:05.246Z,102115.31
2019-03-19T00:17:59.201Z,102103.39
2019-03-19T00:22:53.153Z,102102.92
2019-03-19T00:27:47.118Z,102108.59
2019-03-19T00:32:41.152Z,102100.42
2019-03-19T00:37:35.121Z,102108.39
2019-03-19T00:42:29.074Z,102116.84
2019-03-19T00:47:23.120Z,102108.86
2019-03-19T00:52:17.099Z,102121.11
2019-03-19T00:57:11.078Z,102120.95
2019-03-19T01:02:05.039Z,102121.30
2019-03-19T01:06:59.001Z,102128.23
2019-03-19T01:11:53.285Z,102140.30
2019-03-19T01:16:47.304Z,102140.47
2019-03-19T01:21:41.269Z,102146.21
2019-03-19T01:26:35.402Z,102156.73
2019-03-19T01:31:29.380Z,102152.25
2019-03-19T01:36:23.351Z,102155.37
2019-03-19T01:41:17.427Z,102159.91
2019-03-19T01:46:11.525Z,102163.42
2019-03-19T01:51:05.502Z,102172.63
2019-03-19T01:56:05.225Z,102158.31
2019-03-19T02:00:55.405Z,102157.06
2019-03-19T02:05:49.381Z,102168.55
2019-03-19T02:10:43.361Z,102184.66
2019-03-19T02:15:37.437Z,102184.39
2019-03-19T02:20:31.501Z,102186.60
2019-03-19T02:25:25.563Z,102191.18
2019-03-19T02:30:19.591Z,102186.36
2019-03-19T02:35:13.611Z,102193.33
2019-03-19T02:40:13.057Z,102192.58
2019-03-19T02:45:14.050Z,102196.64
2019-03-19T02:50:13.637Z,102198.41
2019-03-19T02:55:08.638Z,102202.97
2019-03-19T03:00:09.445Z,102208.91
2019-03-19T03:05:07.025Z,102218.28
2019-03-19T03:10:01.231Z,102241.06
2019-03-19T03:14:55.197Z,102249.83
2019-03-19T03:19:49.173Z,102253.63
2019-03-19T03:24:43.155Z,102257.54
2019-03-19T03:29:37.115Z,102258.44
2019-03-19T03:34:31.112Z,102261.81
2019-03-19T03:39:25.083Z,102252.45
2019-03-19T03:44:19.202Z,102252.12
2019-03-19T03:49:13.314Z,102257.83
2019-03-19T03:54:07.392Z,102257.50
2019-03-19T03:59:01.632Z,102270.39
2019-03-19T04:03:55.724Z,102273.86
2019-03-19T04:08:49.814Z,102278.26
2019-03-19T04:13:43.761Z,102283.55
2019-03-19T04:18:37.779Z,102282.39
2019-03-19T04:23:31.750Z,102282.39
2019-03-19T04:28:25.736Z,102293.27
2019-03-19T04:33:19.717Z,102285.89
2019-03-19T04:38:13.676Z,102287.64
2019-03-19T04:43:07.689Z,102301.55
2019-03-19T04:48:03.484Z,102307.17
2019-03-19T04:52:57.494Z,102313.48
2019-03-19T04:57:51.460Z,102317.92
2019-03-19T05:02:45.624Z,102315.45
2019-03-19T05:07:39.695Z,102323.69
2019-03-19T05:12:33.677Z,102315.00
2019-03-19T05:17:27.708Z,102322.73
2019-03-19T05:22:21.692Z,102329.77
2019-03-19T05:27:15.683Z,102332.91
2019-03-19T05:32:09.796Z,102336.85
2019-03-19T05:37:03.869Z,102344.67
2019-03-19T05:41:57.826Z,102343.78
2019-03-19T05:46:51.814Z,102345.09
2019-03-19T05:51:45.795Z,102347.67
2019-03-19T05:56:39.747Z,102345.48
2019-03-19T06:01:33.704Z,102348.84
2019-03-19T06:06:27.671Z,102354.86
2019-03-19T06:11:21.641Z,102369.56
2019-03-19T06:16:15.641Z,102384.67
2019-03-19T06:21:09.629Z,102381.95
2019-03-19T06:26:03.609Z,102377.89
2019-03-19T06:30:57.604Z,102381.23
2019-03-19T06:35:51.703Z,102393.31
2019-03-19T06:40:45.671Z,102398.38
2019-03-19T06:45:39.753Z,102399.91
2019-03-19T06:50:44.406Z,102408.41
2019-03-19T06:55:29.594Z,102415.56
2019-03-19T07:00:23.668Z,102427.17
2019-03-19T07:05:18.552Z,102440.38
2019-03-19T07:10:15.063Z,102444.89
2019-03-19T07:15:16.838Z,102436.36
2019-03-19T07:20:16.295Z,102444.36
2019-03-19T07:25:10.556Z,102448.02
2019-03-19T07:30:21.494Z,102447.24
2019-03-19T07:35:15.582Z,102457.84
2019-03-19T07:40:13.554Z,102461.41
2019-03-19T07:45:15.684Z,102468.00
2019-03-19T07:50:12.144Z,102462.73
2019-03-19T07:55:06.324Z,102464.96
2019-03-19T08:00:00.365Z,102461.88
2019-03-19T08:04:54.573Z,102465.91
2019-03-19T08:09:48.560Z,102461.54
2019-03-19T08:14:42.543Z,102468.97
2019-03-19T08:19:36.613Z,102470.16
2019-03-19T08:24:30.569Z,102463.97
2019-03-19T08:29:24.543Z,102467.62
2019-03-19T08:34:18.680Z,102462.27
2019-03-19T08:39:12.649Z,102468.55
2019-03-19T08:44:06.664Z,102471.70
2019-03-19T08:49:00.628Z,102470.34
2019-03-19T08:53:54.783Z,102471.70
2019-03-19T08:58:48.752Z,102486.38
2019-03-19T09:03:42.753Z,102491.30
2019-03-19T09:08:36.739Z,102501.19
2019-03-19T09:13:30.776Z,102508.73
2019-03-19T09:18:24.757Z,102496.66
2019-03-19T09:23:18.728Z,102499.38
2019-03-19T09:28:12.794Z,102498.79
2019-03-19T09:33:06.781Z,102505.64
2019-03-19T09:38:00.778Z,102509.14
2019-03-19T09:42:54.829Z,102514.05
2019-03-19T09:47:48.796Z,102520.36
2019-03-19T09:52:42.989Z,102512.67
2019-03-19T09:57:37.138Z,102509.98
2019-03-19T10:02:31.310Z,102512.70
2019-03-19T10:07:25.311Z,102522.97
2019-03-19T10:12:19.312Z,102516.78
2019-03-19T10:17:13.286Z,102517.49
2019-03-19T10:22:07.268Z,102508.86
2019-03-19T10:27:01.238Z,102517.67
2019-03-19T10:31:55.353Z,102519.07
2019-03-19T10:36:49.360Z,102521.33
2019-03-19T10:41:43.399Z,102510.38
2019-03-19T10:46:37.489Z,102498.64
2019-03-19T10:51:31.464Z,102502.83
2019-03-19T10:56:25.480Z,102499.56
2019-03-19T11:01:19.467Z,102498.98
2019-03-19T11:06:13.480Z,102498.41
2019-03-19T11:11:07.442Z,102497.42
2019-03-19T11:16:01.459Z,102494.73
2019-03-19T11:20:55.431Z,102496.81
2019-03-19T11:25:54.571Z,102501.48
2019-03-19T11:30:45.450Z,102507.55
2019-03-19T11:35:39.543Z,102497.98
2019-03-19T11:40:33.524Z,102497.98
2019-03-19T11:45:27.715Z,102497.23
2019-03-19T11:50:30.093Z,102486.89
2019-03-19T11:55:24.228Z,102482.48
2019-03-19T12:00:42.218Z,102483.56
2019-03-19T12:05:36.180Z,102479.95
2019-03-19T12:10:30.293Z,102477.84
2019-03-19T12:15:24.397Z,102469.27
2019-03-19T12:20:20.662Z,102468.13
2019-03-19T12:25:14.240Z,102470.17
2019-03-19T12:30:22.435Z,102459.05
2019-03-19T12:35:18.409Z,102459.02
2019-03-19T12:40:22.390Z,102455.91
2019-03-19T12:45:20.485Z,102454.16
2019-03-19T12:50:16.707Z,102468.56
2019-03-19T12:55:10.870Z,102455.53
2019-03-19T13:00:14.482Z,102450.40
2019-03-19T13:05:08.668Z,102443.39
2019-03-19T13:10:12.315Z,102444.18
2019-03-19T13:15:09.026Z,102445.61
2019-03-19T13:20:06.296Z,102444.70
2019-03-19T13:25:00.372Z,102456.96
2019-03-19T13:29:54.348Z,102450.28
2019-03-19T13:34:48.356Z,102447.33
2019-03-19T13:39:42.521Z,102452.77
2019-03-19T13:44:36.604Z,102449.63
2019-03-19T13:49:30.583Z,102450.09
2019-03-19T13:54:24.571Z,102449.20
2019-03-19T13:59:18.511Z,102449.72
2019-03-19T14:04:12.599Z,102438.78
2019-03-19T14:09:06.875Z,102433.85
2019-03-19T14:14:00.853Z,102436.77
2019-03-19T14:18:54.924Z,102443.42
2019-03-19T14:23:48.954Z,102432.42
2019-03-19T14:28:42.970Z,102430.53
2019-03-19T14:33:37.239Z,102435.42
2019-03-19T14:38:31.309Z,102418.11
2019-03-19T14:43:25.431Z,102418.31
2019-03-19T14:48:19.433Z,102415.77
2019-03-19T14:53:13.537Z,102411.58
2019-03-19T14:58:07.516Z,102409.37
2019-03-19T15:03:01.553Z,102411.03
2019-03-19T15:07:55.508Z,102415.45
2019-03-19T15:12:49.636Z,102412.26
2019-03-19T15:17:44.081Z,102416.23
2019-03-19T15:22:38.379Z,102425.75
2019-03-19T15:27:32.357Z,102420.50
2019-03-19T15:32:26.485Z,102415.97
2019-03-19T15:37:20.466Z,102414.27
2019-03-19T15:42:14.468Z,102411.21
2019-03-19T15:47:08.428Z,102417.30
2019-03-19T15:52:02.416Z,102421.19
2019-03-19T15:56:56.512Z,102426.52
2019-03-19T16:01:50.569Z,102421.84
2019-03-19T16:06:44.557Z,102411.88
2019-03-19T16:11:38.658Z,102423.72
2019-03-19T16:16:32.704Z,102431.62
2019-03-19T16:21:26.773Z,102444.02
2019-03-19T16:26:20.817Z,102453.63
2019-03-19T16:31:14.957Z,102456.84
2019-03-19T16:36:08.976Z,102456.00
2019-03-19T16:41:03.024Z,102463.62
2019-03-19T16:45:57.194Z,102468.48
2019-03-19T16:50:51.153Z,102468.06
2019-03-19T16:55:45.128Z,102483.73
2019-03-19T17:00:39.185Z,102487.25
2019-03-19T17:05:33.257Z,102499.76
2019-03-19T17:10:28.837Z,102501.37
2019-03-19T17:15:22.912Z,102502.70
2019-03-19T17:20:17.698Z,102510.66
2019-03-19T17:25:20.214Z,102515.73
2019-03-19T17:30:20.035Z,102518.66
2019-03-19T17:35:14.168Z,102527.94
2019-03-19T17:40:12.451Z,102531.13
2019-03-19T17:45:08.360Z,102542.75
2019-03-19T17:50:08.188Z,102543.33
2019-03-19T17:55:02.374Z,102548.19
2019-03-19T17:59:56.485Z,102554.16
2019-03-19T18:04:50.479Z,102557.95
2019-03-19T18:09:44.581Z,102567.64
2019-03-19T18:14:38.670Z,102568.64
2019-03-19T18:19:32.663Z,102580.07
2019-03-19T18:24:26.635Z,102586.95
2019-03-19T18:29:20.662Z,102580.95
2019-03-19T18:34:14.781Z,102598.26
2019-03-19T18:39:08.776Z,102590.00
2019-03-19T18:44:03.064Z,102589.82
2019-03-19T18:48:57.073Z,102602.70
2019-03-19T18:53:51.225Z,102599.61
2019-03-19T18:58:45.250Z,102605.22
2019-03-19T19:03:40.353Z,102609.70
2019-03-19T19:08:34.521Z,102617.21
2019-03-19T19:13:28.515Z,102620.24
2019-03-19T19:18:22.527Z,102626.88
2019-03-19T19:23:16.659Z,102636.97
2019-03-19T19:28:10.602Z,102642.92
2019-03-19T19:33:04.751Z,102652.02
2019-03-19T19:37:58.893Z,102651.80
2019-03-19T19:42:53.112Z,102654.77
2019-03-19T19:47:47.181Z,102661.13
2019-03-19T19:52:41.334Z,102669.97
2019-03-19T19:57:36.444Z,102677.30
2019-03-19T20:02:30.426Z,102678.92
2019-03-19T20:07:24.645Z,102682.58
2019-03-19T20:12:18.755Z,102689.92
2019-03-19T20:17:12.788Z,102683.19
2019-03-19T20:22:06.794Z,102691.19
2019-03-19T20:27:01.198Z,102694.25
2019-03-19T20:31:55.386Z,102705.63
2019-03-19T20:36:49.376Z,102709.84
2019-03-19T20:41:43.366Z,102707.80
2019-03-19T20:46:37.477Z,102720.59
2019-03-19T20:51:31.695Z,102723.69
2019-03-19T20:56:25.715Z,102724.70
2019-03-19T21:01:19.929Z,102728.05
2019-03-19T21:06:13.934Z,102735.37
2019-03-19T21:11:08.016Z,102735.08
2019-03-19T21:16:02.113Z,102735.30
2019-03-19T21:20:56.116Z,102749.03
2019-03-19T21:25:50.092Z,102757.30
2019-03-19T21:30:44.207Z,102762.19
2019-03-19T21:35:38.234Z,102770.27
2019-03-19T21:40:32.287Z,102775.67
2019-03-19T21:45:26.412Z,102772.86
2019-03-19T21:50:21.788Z,102774.02
2019-03-19T21:55:15.895Z,102783.42
2019-03-19T22:00:13.896Z,102783.95
2019-03-19T22:05:08.092Z,102776.25
2019-03-19T22:15:17.034Z,102772.62
2019-03-19T22:20:11.774Z,102771.92
2019-03-19T22:25:14.082Z,102781.59
2019-03-19T22:30:13.881Z,102780.34
2019-03-19T22:35:08.094Z,102783.91
2019-03-19T22:40:08.276Z,102783.05
2019-03-19T22:45:04.569Z,102782.75
2019-03-19T22:49:58.565Z,102789.55
2019-03-19T22:54:52.517Z,102801.51
2019-03-19T22:59:46.525Z,102794.94
2019-03-19T23:04:40.590Z,102794.31
2019-03-19T23:09:34.556Z,102805.36
2019-03-19T23:14:28.650Z,102812.42
2019-03-19T23:19:22.827Z,102813.88
2019-03-19T23:24:16.789Z,102821.36
2019-03-19T23:29:10.780Z,102815.73
2019-03-19T23:34:04.868Z,102828.12
2019-03-19T23:38:58.852Z,102812.38
2019-03-19T23:43:52.837Z,102797.94
2019-03-19T23:48:47.002Z,102791.38
2019-03-19T23:53:40.961Z,102795.56
2019-03-19T23:58:34.939Z,102806.00
